sensor_id;sensor_type;location;lat;lon;timestamp;P1;durP1;ratioP1;P2;durP2;ratioP2
47659;SDS011;33403;43.608;1.458;2022-12-10T00:01:52;33.67;;;18.65;;
47659;SDS011;33403;43.608;1.458;2022-12-10T00:04:19;35.50;;;18.50;;
47659;SDS011;33403;43.608;1.458;2022-12-10T00:06:45;34.70;;;19.45;;
47659;SDS011;33403;43.608;1.458;2022-12-10T00:09:13;38.15;;;20.70;;
47659;SDS011;33403;43.608;1.458;2022-12-10T00:11:40;39.83;;;21.05;;
47659;SDS011;33403;43.608;1.458;2022-12-10T00:14:06;40.47;;;21.20;;
47659;SDS011;33403;43.608;1.458;2022-12-10T00:16:33;39.38;;;20.33;;
47659;SDS011;33403;43.608;1.458;2022-12-10T00:18:59;39.85;;;21.08;;
47659;SDS011;33403;43.608;1.458;2022-12-10T00:21:29;39.13;;;20.27;;
47659;SDS011;33403;43.608;1.458;2022-12-10T00:23:56;37.53;;;21.23;;
47659;SDS011;33403;43.608;1.458;2022-12-10T00:26:29;42.75;;;22.40;;
47659;SDS011;33403;43.608;1.458;2022-12-10T00:28:56;38.10;;;20.20;;
47659;SDS011;33403;43.608;1.458;2022-12-10T00:31:24;43.40;;;22.15;;
47659;SDS011;33403;43.608;1.458;2022-12-10T00:33:55;41.38;;;22.00;;
47659;SDS011;33403;43.608;1.458;2022-12-10T00:36:23;41.65;;;22.00;;
47659;SDS011;33403;43.608;1.458;2022-12-10T00:38:50;38.67;;;21.33;;
47659;SDS011;33403;43.608;1.458;2022-12-10T00:41:16;39.05;;;21.67;;
47659;SDS011;33403;43.608;1.458;2022-12-10T00:43:43;41.78;;;22.48;;
47659;SDS011;33403;43.608;1.458;2022-12-10T00:46:09;40.00;;;21.60;;
47659;SDS011;33403;43.608;1.458;2022-12-10T00:48:36;43.50;;;22.13;;
47659;SDS011;33403;43.608;1.458;2022-12-10T00:51:06;39.10;;;21.25;;
47659;SDS011;33403;43.608;1.458;2022-12-10T00:53:33;40.83;;;21.88;;
47659;SDS011;33403;43.608;1.458;2022-12-10T00:55:59;41.70;;;22.27;;
47659;SDS011;33403;43.608;1.458;2022-12-10T00:58:27;39.67;;;21.73;;
47659;SDS011;33403;43.608;1.458;2022-12-10T01:00:53;37.80;;;20.77;;
47659;SDS011;33403;43.608;1.458;2022-12-10T01:03:19;40.33;;;20.58;;
47659;SDS011;33403;43.608;1.458;2022-12-10T01:05:45;34.63;;;19.75;;
47659;SDS011;33403;43.608;1.458;2022-12-10T01:08:12;34.85;;;19.83;;
47659;SDS011;33403;43.608;1.458;2022-12-10T01:10:38;32.22;;;18.88;;
47659;SDS011;33403;43.608;1.458;2022-12-10T01:13:04;31.45;;;18.00;;
47659;SDS011;33403;43.608;1.458;2022-12-10T01:15:30;34.83;;;19.30;;
47659;SDS011;33403;43.608;1.458;2022-12-10T01:17:56;36.50;;;19.42;;
47659;SDS011;33403;43.608;1.458;2022-12-10T01:20:22;34.05;;;20.42;;
47659;SDS011;33403;43.608;1.458;2022-12-10T01:22:48;35.78;;;19.48;;
47659;SDS011;33403;43.608;1.458;2022-12-10T01:25:14;37.30;;;20.95;;
47659;SDS011;33403;43.608;1.458;2022-12-10T01:27:40;37.67;;;20.60;;
47659;SDS011;33403;43.608;1.458;2022-12-10T01:30:07;37.97;;;20.80;;
47659;SDS011;33403;43.608;1.458;2022-12-10T01:32:33;35.53;;;20.40;;
47659;SDS011;33403;43.608;1.458;2022-12-10T01:34:59;34.67;;;19.20;;
47659;SDS011;33403;43.608;1.458;2022-12-10T01:37:25;30.98;;;19.23;;
47659;SDS011;33403;43.608;1.458;2022-12-10T01:39:51;32.92;;;19.00;;
47659;SDS011;33403;43.608;1.458;2022-12-10T01:42:17;35.25;;;18.80;;
47659;SDS011;33403;43.608;1.458;2022-12-10T01:47:09;32.50;;;19.17;;
47659;SDS011;33403;43.608;1.458;2022-12-10T01:49:37;33.20;;;19.70;;
47659;SDS011;33403;43.608;1.458;2022-12-10T01:52:04;33.90;;;19.90;;
47659;SDS011;33403;43.608;1.458;2022-12-10T01:54:33;35.72;;;20.48;;
47659;SDS011;33403;43.608;1.458;2022-12-10T01:57:00;31.70;;;19.17;;
47659;SDS011;33403;43.608;1.458;2022-12-10T01:59:27;30.60;;;19.15;;
47659;SDS011;33403;43.608;1.458;2022-12-10T02:14:30;31.80;;;19.15;;
47659;SDS011;33403;43.608;1.458;2022-12-10T02:17:01;31.58;;;18.65;;
47659;SDS011;33403;43.608;1.458;2022-12-10T02:22:03;31.90;;;20.40;;
47659;SDS011;33403;43.608;1.458;2022-12-10T02:24:30;34.33;;;19.60;;
47659;SDS011;33403;43.608;1.458;2022-12-10T02:29:27;35.63;;;20.48;;
47659;SDS011;33403;43.608;1.458;2022-12-10T02:34:43;33.85;;;19.73;;
47659;SDS011;33403;43.608;1.458;2022-12-10T02:37:12;31.83;;;19.37;;
47659;SDS011;33403;43.608;1.458;2022-12-10T02:39:41;33.57;;;19.67;;
47659;SDS011;33403;43.608;1.458;2022-12-10T02:42:09;34.33;;;20.08;;
47659;SDS011;33403;43.608;1.458;2022-12-10T02:44:37;28.33;;;17.60;;
47659;SDS011;33403;43.608;1.458;2022-12-10T02:47:05;31.17;;;18.27;;
47659;SDS011;33403;43.608;1.458;2022-12-10T02:49:32;28.95;;;17.45;;
47659;SDS011;33403;43.608;1.458;2022-12-10T02:52:05;30.20;;;18.37;;
47659;SDS011;33403;43.608;1.458;2022-12-10T02:54:42;29.53;;;17.30;;
47659;SDS011;33403;43.608;1.458;2022-12-10T03:00:20;28.50;;;17.60;;
47659;SDS011;33403;43.608;1.458;2022-12-10T03:05:15;30.27;;;17.50;;
47659;SDS011;33403;43.608;1.458;2022-12-10T03:07:48;26.53;;;16.43;;
47659;SDS011;33403;43.608;1.458;2022-12-10T03:10:25;27.50;;;16.43;;
47659;SDS011;33403;43.608;1.458;2022-12-10T03:13:00;26.33;;;16.67;;
47659;SDS011;33403;43.608;1.458;2022-12-10T03:15:29;28.73;;;17.00;;
47659;SDS011;33403;43.608;1.458;2022-12-10T03:17:56;26.23;;;16.40;;
47659;SDS011;33403;43.608;1.458;2022-12-10T03:20:24;25.40;;;16.33;;
47659;SDS011;33403;43.608;1.458;2022-12-10T03:22:51;28.37;;;16.57;;
47659;SDS011;33403;43.608;1.458;2022-12-10T03:25:18;29.93;;;17.00;;
47659;SDS011;33403;43.608;1.458;2022-12-10T03:27:45;28.57;;;17.23;;
47659;SDS011;33403;43.608;1.458;2022-12-10T03:30:11;28.33;;;16.60;;
47659;SDS011;33403;43.608;1.458;2022-12-10T03:32:37;28.30;;;17.13;;
47659;SDS011;33403;43.608;1.458;2022-12-10T03:35:03;26.75;;;16.67;;
47659;SDS011;33403;43.608;1.458;2022-12-10T03:37:30;28.93;;;16.70;;
47659;SDS011;33403;43.608;1.458;2022-12-10T03:39:56;25.57;;;16.40;;
47659;SDS011;33403;43.608;1.458;2022-12-10T03:42:22;29.60;;;16.87;;
47659;SDS011;33403;43.608;1.458;2022-12-10T03:44:49;24.93;;;15.93;;
47659;SDS011;33403;43.608;1.458;2022-12-10T03:47:15;24.23;;;15.60;;
47659;SDS011;33403;43.608;1.458;2022-12-10T03:49:42;24.07;;;14.93;;
47659;SDS011;33403;43.608;1.458;2022-12-10T03:52:08;25.50;;;16.10;;
47659;SDS011;33403;43.608;1.458;2022-12-10T03:54:34;24.23;;;15.40;;
47659;SDS011;33403;43.608;1.458;2022-12-10T03:57:00;24.93;;;15.70;;
47659;SDS011;33403;43.608;1.458;2022-12-10T03:59:26;27.30;;;15.73;;
47659;SDS011;33403;43.608;1.458;2022-12-10T04:01:53;25.77;;;16.23;;
47659;SDS011;33403;43.608;1.458;2022-12-10T04:04:19;25.13;;;15.47;;
47659;SDS011;33403;43.608;1.458;2022-12-10T04:06:45;24.93;;;15.43;;
47659;SDS011;33403;43.608;1.458;2022-12-10T04:09:12;27.47;;;16.20;;
47659;SDS011;33403;43.608;1.458;2022-12-10T04:11:38;26.00;;;15.83;;
47659;SDS011;33403;43.608;1.458;2022-12-10T04:14:04;25.43;;;15.30;;
47659;SDS011;33403;43.608;1.458;2022-12-10T04:16:49;25.80;;;15.37;;
47659;SDS011;33403;43.608;1.458;2022-12-10T04:19:16;26.63;;;15.93;;
47659;SDS011;33403;43.608;1.458;2022-12-10T04:21:43;23.50;;;14.37;;
47659;SDS011;33403;43.608;1.458;2022-12-10T04:24:28;22.00;;;14.40;;
47659;SDS011;33403;43.608;1.458;2022-12-10T04:29:49;22.43;;;13.97;;
47659;SDS011;33403;43.608;1.458;2022-12-10T04:32:16;22.53;;;14.20;;
47659;SDS011;33403;43.608;1.458;2022-12-10T04:34:42;22.10;;;13.70;;
47659;SDS011;33403;43.608;1.458;2022-12-10T04:37:08;20.93;;;13.33;;
47659;SDS011;33403;43.608;1.458;2022-12-10T04:39:36;22.07;;;13.83;;
47659;SDS011;33403;43.608;1.458;2022-12-10T04:42:02;21.87;;;13.53;;
47659;SDS011;33403;43.608;1.458;2022-12-10T04:44:28;23.63;;;14.00;;
47659;SDS011;33403;43.608;1.458;2022-12-10T04:46:54;22.57;;;13.43;;
47659;SDS011;33403;43.608;1.458;2022-12-10T04:49:20;23.27;;;13.37;;
47659;SDS011;33403;43.608;1.458;2022-12-10T04:51:46;23.23;;;13.40;;
47659;SDS011;33403;43.608;1.458;2022-12-10T04:54:12;21.33;;;13.73;;
47659;SDS011;33403;43.608;1.458;2022-12-10T04:56:39;19.93;;;12.90;;
47659;SDS011;33403;43.608;1.458;2022-12-10T04:59:05;22.30;;;13.53;;
47659;SDS011;33403;43.608;1.458;2022-12-10T05:01:31;22.00;;;13.67;;
47659;SDS011;33403;43.608;1.458;2022-12-10T05:04:01;24.23;;;13.27;;
47659;SDS011;33403;43.608;1.458;2022-12-10T05:06:28;24.77;;;14.03;;
47659;SDS011;33403;43.608;1.458;2022-12-10T05:08:54;22.13;;;13.33;;
47659;SDS011;33403;43.608;1.458;2022-12-10T05:11:21;21.83;;;12.97;;
47659;SDS011;33403;43.608;1.458;2022-12-10T05:13:47;20.40;;;13.00;;
47659;SDS011;33403;43.608;1.458;2022-12-10T05:16:14;21.23;;;12.73;;
47659;SDS011;33403;43.608;1.458;2022-12-10T05:18:40;21.70;;;12.73;;
47659;SDS011;33403;43.608;1.458;2022-12-10T05:21:07;22.67;;;12.50;;
47659;SDS011;33403;43.608;1.458;2022-12-10T05:23:37;19.00;;;12.27;;
47659;SDS011;33403;43.608;1.458;2022-12-10T05:26:05;19.93;;;12.27;;
47659;SDS011;33403;43.608;1.458;2022-12-10T05:28:32;20.77;;;12.47;;
47659;SDS011;33403;43.608;1.458;2022-12-10T05:30:58;20.50;;;12.20;;
47659;SDS011;33403;43.608;1.458;2022-12-10T05:33:25;22.00;;;11.87;;
47659;SDS011;33403;43.608;1.458;2022-12-10T05:36:01;19.70;;;12.40;;
47659;SDS011;33403;43.608;1.458;2022-12-10T05:38:28;19.30;;;11.43;;
47659;SDS011;33403;43.608;1.458;2022-12-10T05:40:55;19.80;;;12.47;;
47659;SDS011;33403;43.608;1.458;2022-12-10T05:43:21;25.27;;;12.60;;
47659;SDS011;33403;43.608;1.458;2022-12-10T05:45:47;19.33;;;12.23;;
47659;SDS011;33403;43.608;1.458;2022-12-10T05:48:14;19.97;;;12.23;;
47659;SDS011;33403;43.608;1.458;2022-12-10T05:50:41;19.10;;;12.00;;
47659;SDS011;33403;43.608;1.458;2022-12-10T05:53:07;21.03;;;12.43;;
47659;SDS011;33403;43.608;1.458;2022-12-10T05:55:33;22.10;;;12.73;;
47659;SDS011;33403;43.608;1.458;2022-12-10T05:58:00;21.43;;;13.20;;
47659;SDS011;33403;43.608;1.458;2022-12-10T06:00:26;20.53;;;12.47;;
47659;SDS011;33403;43.608;1.458;2022-12-10T06:02:52;22.30;;;13.07;;
47659;SDS011;33403;43.608;1.458;2022-12-10T06:05:18;20.77;;;12.23;;
47659;SDS011;33403;43.608;1.458;2022-12-10T06:07:44;21.73;;;12.33;;
47659;SDS011;33403;43.608;1.458;2022-12-10T06:10:11;20.00;;;11.90;;
47659;SDS011;33403;43.608;1.458;2022-12-10T06:12:37;19.90;;;11.83;;
47659;SDS011;33403;43.608;1.458;2022-12-10T06:15:04;22.60;;;12.00;;
47659;SDS011;33403;43.608;1.458;2022-12-10T06:17:30;20.07;;;12.07;;
47659;SDS011;33403;43.608;1.458;2022-12-10T06:19:56;20.97;;;12.57;;
47659;SDS011;33403;43.608;1.458;2022-12-10T06:22:22;22.50;;;12.57;;
47659;SDS011;33403;43.608;1.458;2022-12-10T06:24:48;20.67;;;13.00;;
47659;SDS011;33403;43.608;1.458;2022-12-10T06:27:14;23.20;;;12.83;;
47659;SDS011;33403;43.608;1.458;2022-12-10T06:29:40;21.37;;;12.70;;
47659;SDS011;33403;43.608;1.458;2022-12-10T06:32:07;22.57;;;12.90;;
47659;SDS011;33403;43.608;1.458;2022-12-10T06:34:33;21.20;;;12.60;;
47659;SDS011;33403;43.608;1.458;2022-12-10T06:36:59;22.07;;;12.80;;
47659;SDS011;33403;43.608;1.458;2022-12-10T06:39:25;23.93;;;12.83;;
47659;SDS011;33403;43.608;1.458;2022-12-10T06:41:51;23.50;;;12.30;;
47659;SDS011;33403;43.608;1.458;2022-12-10T06:44:18;23.77;;;13.27;;
47659;SDS011;33403;43.608;1.458;2022-12-10T06:46:44;22.27;;;12.77;;
47659;SDS011;33403;43.608;1.458;2022-12-10T06:49:10;22.23;;;12.93;;
47659;SDS011;33403;43.608;1.458;2022-12-10T06:51:36;26.07;;;13.67;;
47659;SDS011;33403;43.608;1.458;2022-12-10T06:54:03;23.13;;;12.80;;
47659;SDS011;33403;43.608;1.458;2022-12-10T06:56:30;23.67;;;13.03;;
47659;SDS011;33403;43.608;1.458;2022-12-10T06:58:56;23.90;;;13.43;;
47659;SDS011;33403;43.608;1.458;2022-12-10T07:01:23;23.87;;;13.27;;
47659;SDS011;33403;43.608;1.458;2022-12-10T07:03:52;20.73;;;12.37;;
47659;SDS011;33403;43.608;1.458;2022-12-10T07:06:19;23.60;;;12.97;;
47659;SDS011;33403;43.608;1.458;2022-12-10T07:08:46;23.00;;;12.73;;
47659;SDS011;33403;43.608;1.458;2022-12-10T07:11:14;22.90;;;12.57;;
47659;SDS011;33403;43.608;1.458;2022-12-10T07:13:40;22.80;;;12.67;;
47659;SDS011;33403;43.608;1.458;2022-12-10T07:16:16;22.23;;;12.03;;
47659;SDS011;33403;43.608;1.458;2022-12-10T07:18:43;21.20;;;11.87;;
47659;SDS011;33403;43.608;1.458;2022-12-10T07:21:13;20.73;;;11.80;;
47659;SDS011;33403;43.608;1.458;2022-12-10T07:23:39;19.80;;;11.33;;
47659;SDS011;33403;43.608;1.458;2022-12-10T07:26:05;23.23;;;12.10;;
47659;SDS011;33403;43.608;1.458;2022-12-10T07:28:31;22.43;;;11.93;;
47659;SDS011;33403;43.608;1.458;2022-12-10T07:31:05;21.50;;;11.80;;
47659;SDS011;33403;43.608;1.458;2022-12-10T07:33:31;21.50;;;11.87;;
47659;SDS011;33403;43.608;1.458;2022-12-10T07:35:57;19.60;;;11.70;;
47659;SDS011;33403;43.608;1.458;2022-12-10T07:38:24;18.43;;;11.03;;
47659;SDS011;33403;43.608;1.458;2022-12-10T07:40:50;19.60;;;11.23;;
47659;SDS011;33403;43.608;1.458;2022-12-10T07:43:16;18.63;;;10.63;;
47659;SDS011;33403;43.608;1.458;2022-12-10T07:45:42;18.33;;;11.17;;
47659;SDS011;33403;43.608;1.458;2022-12-10T07:48:08;21.03;;;11.20;;
47659;SDS011;33403;43.608;1.458;2022-12-10T07:50:34;19.57;;;11.50;;
47659;SDS011;33403;43.608;1.458;2022-12-10T07:53:00;20.13;;;11.53;;
47659;SDS011;33403;43.608;1.458;2022-12-10T07:55:26;19.73;;;11.17;;
47659;SDS011;33403;43.608;1.458;2022-12-10T07:57:52;18.10;;;11.07;;
47659;SDS011;33403;43.608;1.458;2022-12-10T08:00:18;18.67;;;11.93;;
47659;SDS011;33403;43.608;1.458;2022-12-10T08:02:45;19.30;;;11.20;;
47659;SDS011;33403;43.608;1.458;2022-12-10T08:05:11;17.83;;;10.67;;
47659;SDS011;33403;43.608;1.458;2022-12-10T08:07:36;17.03;;;10.57;;
47659;SDS011;33403;43.608;1.458;2022-12-10T08:10:03;17.03;;;10.67;;
47659;SDS011;33403;43.608;1.458;2022-12-10T08:12:29;17.03;;;11.10;;
47659;SDS011;33403;43.608;1.458;2022-12-10T08:14:55;18.30;;;10.70;;
47659;SDS011;33403;43.608;1.458;2022-12-10T08:17:21;18.27;;;11.03;;
47659;SDS011;33403;43.608;1.458;2022-12-10T08:19:47;15.93;;;10.87;;
47659;SDS011;33403;43.608;1.458;2022-12-10T08:22:14;19.73;;;11.93;;
47659;SDS011;33403;43.608;1.458;2022-12-10T08:24:40;19.37;;;11.93;;
47659;SDS011;33403;43.608;1.458;2022-12-10T08:27:06;19.07;;;11.60;;
47659;SDS011;33403;43.608;1.458;2022-12-10T08:29:32;18.00;;;11.23;;
47659;SDS011;33403;43.608;1.458;2022-12-10T08:31:58;18.30;;;10.83;;
47659;SDS011;33403;43.608;1.458;2022-12-10T08:34:24;18.80;;;11.27;;
47659;SDS011;33403;43.608;1.458;2022-12-10T08:36:50;18.70;;;11.40;;
47659;SDS011;33403;43.608;1.458;2022-12-10T08:39:16;20.87;;;11.57;;
47659;SDS011;33403;43.608;1.458;2022-12-10T08:41:43;18.37;;;11.23;;
47659;SDS011;33403;43.608;1.458;2022-12-10T08:44:09;18.30;;;11.53;;
47659;SDS011;33403;43.608;1.458;2022-12-10T08:46:35;19.20;;;11.80;;
47659;SDS011;33403;43.608;1.458;2022-12-10T08:49:02;20.17;;;12.03;;
47659;SDS011;33403;43.608;1.458;2022-12-10T08:51:28;19.67;;;12.10;;
47659;SDS011;33403;43.608;1.458;2022-12-10T08:53:54;18.33;;;11.87;;
47659;SDS011;33403;43.608;1.458;2022-12-10T08:56:20;16.40;;;11.00;;
47659;SDS011;33403;43.608;1.458;2022-12-10T08:58:46;17.30;;;11.07;;
47659;SDS011;33403;43.608;1.458;2022-12-10T09:01:14;16.80;;;11.23;;
47659;SDS011;33403;43.608;1.458;2022-12-10T09:03:40;18.60;;;11.93;;
47659;SDS011;33403;43.608;1.458;2022-12-10T09:06:07;17.37;;;11.40;;
47659;SDS011;33403;43.608;1.458;2022-12-10T09:08:33;18.10;;;11.17;;
47659;SDS011;33403;43.608;1.458;2022-12-10T09:11:10;17.27;;;10.97;;
47659;SDS011;33403;43.608;1.458;2022-12-10T09:13:37;17.07;;;11.10;;
47659;SDS011;33403;43.608;1.458;2022-12-10T09:16:03;17.07;;;10.90;;
47659;SDS011;33403;43.608;1.458;2022-12-10T09:18:30;16.83;;;10.87;;
47659;SDS011;33403;43.608;1.458;2022-12-10T09:20:56;15.80;;;10.90;;
47659;SDS011;33403;43.608;1.458;2022-12-10T09:23:22;16.77;;;11.10;;
47659;SDS011;33403;43.608;1.458;2022-12-10T09:25:48;16.33;;;11.17;;
47659;SDS011;33403;43.608;1.458;2022-12-10T09:28:14;16.83;;;10.90;;
47659;SDS011;33403;43.608;1.458;2022-12-10T09:30:40;16.20;;;10.37;;
47659;SDS011;33403;43.608;1.458;2022-12-10T09:33:06;16.17;;;10.50;;
47659;SDS011;33403;43.608;1.458;2022-12-10T09:35:32;14.67;;;10.20;;
47659;SDS011;33403;43.608;1.458;2022-12-10T09:37:58;14.90;;;10.37;;
47659;SDS011;33403;43.608;1.458;2022-12-10T09:40:29;16.47;;;10.57;;
47659;SDS011;33403;43.608;1.458;2022-12-10T09:43:00;15.97;;;10.50;;
47659;SDS011;33403;43.608;1.458;2022-12-10T09:45:31;19.47;;;10.77;;
47659;SDS011;33403;43.608;1.458;2022-12-10T09:48:41;15.87;;;10.20;;
47659;SDS011;33403;43.608;1.458;2022-12-10T09:50:53;15.03;;;9.93;;
47659;SDS011;33403;43.608;1.458;2022-12-10T09:53:21;15.43;;;10.30;;
47659;SDS011;33403;43.608;1.458;2022-12-10T09:55:48;15.90;;;10.10;;
47659;SDS011;33403;43.608;1.458;2022-12-10T09:58:21;16.13;;;10.30;;
47659;SDS011;33403;43.608;1.458;2022-12-10T10:00:50;15.57;;;10.20;;
47659;SDS011;33403;43.608;1.458;2022-12-10T10:03:17;14.97;;;9.93;;
47659;SDS011;33403;43.608;1.458;2022-12-10T10:05:44;15.87;;;9.60;;
47659;SDS011;33403;43.608;1.458;2022-12-10T10:08:12;15.07;;;10.03;;
47659;SDS011;33403;43.608;1.458;2022-12-10T10:10:40;14.23;;;9.73;;
47659;SDS011;33403;43.608;1.458;2022-12-10T10:15:33;14.43;;;9.43;;
47659;SDS011;33403;43.608;1.458;2022-12-10T10:18:09;15.63;;;9.43;;
47659;SDS011;33403;43.608;1.458;2022-12-10T10:20:37;14.47;;;9.90;;
47659;SDS011;33403;43.608;1.458;2022-12-10T10:23:03;14.70;;;9.80;;
47659;SDS011;33403;43.608;1.458;2022-12-10T10:25:29;14.37;;;9.60;;
47659;SDS011;33403;43.608;1.458;2022-12-10T10:27:55;14.47;;;10.20;;
47659;SDS011;33403;43.608;1.458;2022-12-10T10:30:22;13.60;;;9.50;;
47659;SDS011;33403;43.608;1.458;2022-12-10T10:32:51;14.43;;;9.50;;
47659;SDS011;33403;43.608;1.458;2022-12-10T10:35:22;14.10;;;9.10;;
47659;SDS011;33403;43.608;1.458;2022-12-10T10:37:48;14.37;;;9.60;;
47659;SDS011;33403;43.608;1.458;2022-12-10T10:40:22;13.97;;;9.53;;
47659;SDS011;33403;43.608;1.458;2022-12-10T10:42:51;13.97;;;9.10;;
47659;SDS011;33403;43.608;1.458;2022-12-10T10:50:44;12.97;;;9.07;;
47659;SDS011;33403;43.608;1.458;2022-12-10T10:56:06;13.60;;;9.20;;
47659;SDS011;33403;43.608;1.458;2022-12-10T10:58:33;12.37;;;8.43;;
47659;SDS011;33403;43.608;1.458;2022-12-10T11:03:29;14.40;;;9.27;;
47659;SDS011;33403;43.608;1.458;2022-12-10T11:05:56;14.60;;;9.17;;
47659;SDS011;33403;43.608;1.458;2022-12-10T11:08:23;14.43;;;9.47;;
47659;SDS011;33403;43.608;1.458;2022-12-10T11:10:51;14.57;;;9.40;;
47659;SDS011;33403;43.608;1.458;2022-12-10T11:13:27;13.83;;;9.80;;
47659;SDS011;33403;43.608;1.458;2022-12-10T11:15:59;13.80;;;9.20;;
47659;SDS011;33403;43.608;1.458;2022-12-10T11:18:36;14.40;;;9.00;;
47659;SDS011;33403;43.608;1.458;2022-12-10T11:21:04;12.93;;;8.83;;
47659;SDS011;33403;43.608;1.458;2022-12-10T11:23:32;14.23;;;8.97;;
47659;SDS011;33403;43.608;1.458;2022-12-10T11:26:06;13.20;;;8.37;;
47659;SDS011;33403;43.608;1.458;2022-12-10T11:33:46;14.13;;;9.07;;
47659;SDS011;33403;43.608;1.458;2022-12-10T11:39:10;14.93;;;10.00;;
47659;SDS011;33403;43.608;1.458;2022-12-10T11:44:14;11.13;;;8.20;;
47659;SDS011;33403;43.608;1.458;2022-12-10T11:49:26;14.50;;;9.10;;
47659;SDS011;33403;43.608;1.458;2022-12-10T11:57:13;12.03;;;8.23;;
47659;SDS011;33403;43.608;1.458;2022-12-10T11:59:46;12.93;;;8.80;;
47659;SDS011;33403;43.608;1.458;2022-12-10T12:05:12;14.30;;;8.90;;
47659;SDS011;33403;43.608;1.458;2022-12-10T12:10:32;12.47;;;8.23;;
47659;SDS011;33403;43.608;1.458;2022-12-10T12:13:02;13.43;;;8.60;;
47659;SDS011;33403;43.608;1.458;2022-12-10T12:15:42;14.13;;;8.43;;
47659;SDS011;33403;43.608;1.458;2022-12-10T12:20:41;13.93;;;9.27;;
47659;SDS011;33403;43.608;1.458;2022-12-10T12:23:16;13.10;;;8.47;;
47659;SDS011;33403;43.608;1.458;2022-12-10T12:25:48;11.37;;;8.47;;
47659;SDS011;33403;43.608;1.458;2022-12-10T12:28:31;12.63;;;8.57;;
47659;SDS011;33403;43.608;1.458;2022-12-10T12:31:08;14.90;;;8.57;;
47659;SDS011;33403;43.608;1.458;2022-12-10T12:33:39;14.13;;;8.67;;
47659;SDS011;33403;43.608;1.458;2022-12-10T12:36:11;11.67;;;8.07;;
47659;SDS011;33403;43.608;1.458;2022-12-10T12:38:41;13.60;;;8.40;;
47659;SDS011;33403;43.608;1.458;2022-12-10T12:41:24;14.30;;;8.97;;
47659;SDS011;33403;43.608;1.458;2022-12-10T12:43:55;13.07;;;8.50;;
47659;SDS011;33403;43.608;1.458;2022-12-10T12:46:29;17.20;;;10.57;;
47659;SDS011;33403;43.608;1.458;2022-12-10T12:48:57;11.83;;;8.10;;
47659;SDS011;33403;43.608;1.458;2022-12-10T12:51:29;13.77;;;8.20;;
47659;SDS011;33403;43.608;1.458;2022-12-10T12:53:58;14.13;;;8.40;;
47659;SDS011;33403;43.608;1.458;2022-12-10T13:03:49;11.93;;;7.67;;
47659;SDS011;33403;43.608;1.458;2022-12-10T13:06:17;10.30;;;7.33;;
47659;SDS011;33403;43.608;1.458;2022-12-10T13:08:47;11.10;;;7.73;;
47659;SDS011;33403;43.608;1.458;2022-12-10T13:11:27;11.73;;;7.80;;
47659;SDS011;33403;43.608;1.458;2022-12-10T13:14:09;12.03;;;7.87;;
47659;SDS011;33403;43.608;1.458;2022-12-10T13:19:39;11.73;;;7.50;;
47659;SDS011;33403;43.608;1.458;2022-12-10T13:22:09;12.53;;;8.20;;
47659;SDS011;33403;43.608;1.458;2022-12-10T13:27:10;10.63;;;7.73;;
47659;SDS011;33403;43.608;1.458;2022-12-10T13:30:00;11.97;;;8.20;;
47659;SDS011;33403;43.608;1.458;2022-12-10T13:40:23;12.77;;;8.57;;
47659;SDS011;33403;43.608;1.458;2022-12-10T13:42:55;13.43;;;9.23;;
47659;SDS011;33403;43.608;1.458;2022-12-10T13:45:42;14.57;;;9.70;;
47659;SDS011;33403;43.608;1.458;2022-12-10T13:48:28;13.67;;;9.10;;
47659;SDS011;33403;43.608;1.458;2022-12-10T13:56:24;13.80;;;9.03;;
47659;SDS011;33403;43.608;1.458;2022-12-10T14:01:32;16.30;;;9.07;;
47659;SDS011;33403;43.608;1.458;2022-12-10T14:04:01;13.90;;;9.03;;
47659;SDS011;33403;43.608;1.458;2022-12-10T14:06:35;14.67;;;9.90;;
47659;SDS011;33403;43.608;1.458;2022-12-10T14:09:05;13.60;;;8.77;;
47659;SDS011;33403;43.608;1.458;2022-12-10T14:11:36;15.63;;;9.83;;
47659;SDS011;33403;43.608;1.458;2022-12-10T14:14:04;13.90;;;9.37;;
47659;SDS011;33403;43.608;1.458;2022-12-10T14:16:31;14.63;;;9.27;;
47659;SDS011;33403;43.608;1.458;2022-12-10T14:18:59;15.00;;;9.63;;
47659;SDS011;33403;43.608;1.458;2022-12-10T14:21:26;13.93;;;8.97;;
47659;SDS011;33403;43.608;1.458;2022-12-10T14:23:52;15.43;;;9.20;;
47659;SDS011;33403;43.608;1.458;2022-12-10T14:26:26;13.57;;;8.87;;
47659;SDS011;33403;43.608;1.458;2022-12-10T14:29:00;13.40;;;8.67;;
47659;SDS011;33403;43.608;1.458;2022-12-10T14:33:53;17.50;;;10.00;;
47659;SDS011;33403;43.608;1.458;2022-12-10T14:37:06;14.43;;;9.33;;
47659;SDS011;33403;43.608;1.458;2022-12-10T14:39:12;16.50;;;10.10;;
47659;SDS011;33403;43.608;1.458;2022-12-10T14:41:40;14.50;;;9.70;;
47659;SDS011;33403;43.608;1.458;2022-12-10T14:44:06;15.87;;;10.47;;
47659;SDS011;33403;43.608;1.458;2022-12-10T14:46:32;15.00;;;10.13;;
47659;SDS011;33403;43.608;1.458;2022-12-10T14:48:58;17.93;;;10.23;;
47659;SDS011;33403;43.608;1.458;2022-12-10T14:51:26;14.03;;;9.77;;
47659;SDS011;33403;43.608;1.458;2022-12-10T14:53:52;16.80;;;9.97;;
47659;SDS011;33403;43.608;1.458;2022-12-10T14:56:26;15.37;;;10.10;;
47659;SDS011;33403;43.608;1.458;2022-12-10T15:01:22;16.87;;;10.20;;
47659;SDS011;33403;43.608;1.458;2022-12-10T15:03:51;16.87;;;10.33;;
47659;SDS011;33403;43.608;1.458;2022-12-10T15:06:18;16.33;;;10.10;;
47659;SDS011;33403;43.608;1.458;2022-12-10T15:08:45;16.40;;;10.73;;
47659;SDS011;33403;43.608;1.458;2022-12-10T15:11:19;17.30;;;10.57;;
47659;SDS011;33403;43.608;1.458;2022-12-10T15:13:48;17.70;;;10.90;;
47659;SDS011;33403;43.608;1.458;2022-12-10T15:16:17;17.00;;;11.17;;
47659;SDS011;33403;43.608;1.458;2022-12-10T15:18:43;19.20;;;11.43;;
47659;SDS011;33403;43.608;1.458;2022-12-10T15:21:19;18.20;;;11.03;;
47659;SDS011;33403;43.608;1.458;2022-12-10T15:23:46;18.87;;;11.67;;
47659;SDS011;33403;43.608;1.458;2022-12-10T15:28:41;20.60;;;12.10;;
47659;SDS011;33403;43.608;1.458;2022-12-10T15:33:53;25.30;;;12.30;;
47659;SDS011;33403;43.608;1.458;2022-12-10T15:39:05;19.53;;;11.37;;
47659;SDS011;33403;43.608;1.458;2022-12-10T15:41:43;17.03;;;11.17;;
47659;SDS011;33403;43.608;1.458;2022-12-10T15:49:30;17.77;;;11.23;;
47659;SDS011;33403;43.608;1.458;2022-12-10T15:51:56;16.30;;;10.67;;
47659;SDS011;33403;43.608;1.458;2022-12-10T15:54:24;16.80;;;10.53;;
47659;SDS011;33403;43.608;1.458;2022-12-10T15:56:52;17.47;;;11.20;;
47659;SDS011;33403;43.608;1.458;2022-12-10T15:59:18;18.37;;;11.13;;
47659;SDS011;33403;43.608;1.458;2022-12-10T16:01:45;18.10;;;11.93;;
47659;SDS011;33403;43.608;1.458;2022-12-10T16:04:12;18.80;;;11.70;;
47659;SDS011;33403;43.608;1.458;2022-12-10T16:06:38;16.97;;;11.57;;
47659;SDS011;33403;43.608;1.458;2022-12-10T16:09:04;19.10;;;11.40;;
47659;SDS011;33403;43.608;1.458;2022-12-10T16:11:31;18.10;;;11.23;;
47659;SDS011;33403;43.608;1.458;2022-12-10T16:13:57;20.23;;;11.40;;
47659;SDS011;33403;43.608;1.458;2022-12-10T16:16:23;19.03;;;11.27;;
47659;SDS011;33403;43.608;1.458;2022-12-10T16:18:50;18.23;;;12.03;;
47659;SDS011;33403;43.608;1.458;2022-12-10T16:21:16;17.43;;;11.60;;
47659;SDS011;33403;43.608;1.458;2022-12-10T16:23:42;21.20;;;11.67;;
47659;SDS011;33403;43.608;1.458;2022-12-10T16:26:20;21.90;;;12.53;;
47659;SDS011;33403;43.608;1.458;2022-12-10T16:28:47;22.83;;;12.80;;